createdAt,value
2023-02-11T00:00:22.126Z,100.00
2023-02-11T00:05:44.951Z,100.00
2023-02-11T00:11:07.488Z,100.00
2023-02-11T00:16:30.197Z,100.00
2023-02-11T00:21:52.306Z,100.00
2023-02-11T00:27:14.568Z,100.00
2023-02-11T00:32:43.245Z,100.00
2023-02-11T00:38:08.556Z,100.00
2023-02-11T00:43:30.951Z,100.00
2023-02-11T00:48:55.681Z,100.00
2023-02-11T00:54:17.285Z,100.00
2023-02-11T00:59:39.482Z,100.00
2023-02-11T01:05:02.328Z,100.00
2023-02-11T01:10:24.606Z,100.00
2023-02-11T01:15:51.067Z,100.00
2023-02-11T01:21:13.487Z,100.00
2023-02-11T01:26:35.759Z,100.00
2023-02-11T01:31:58.077Z,100.00
2023-02-11T01:37:20.848Z,100.00
2023-02-11T01:42:44.087Z,100.00
2023-02-11T01:48:06.290Z,100.00
2023-02-11T01:53:48.825Z,100.00
2023-02-11T01:59:28.648Z,100.00
2023-02-11T02:05:08.269Z,100.00
2023-02-11T02:10:38.729Z,100.00
2023-02-11T02:16:13.887Z,100.00
2023-02-11T02:22:24.325Z,100.00
2023-02-11T02:28:20.035Z,100.00
2023-02-11T02:33:58.861Z,100.00
2023-02-11T02:39:35.124Z,100.00
2023-02-11T02:44:57.413Z,100.00
2023-02-11T02:50:28.245Z,100.00
2023-02-11T02:56:19.004Z,100.00
2023-02-11T03:02:21.230Z,100.00
2023-02-11T03:08:19.174Z,100.00
2023-02-11T03:13:43.825Z,100.00
2023-02-11T03:19:25.470Z,100.00
2023-02-11T03:24:50.715Z,100.00
2023-02-11T03:30:19.407Z,100.00
2023-02-11T03:36:22.464Z,100.00
2023-02-11T03:41:50.034Z,100.00
2023-02-11T03:47:17.947Z,100.00
2023-02-11T03:52:40.924Z,100.00
2023-02-11T03:58:03.109Z,100.00
2023-02-11T04:03:25.307Z,100.00
2023-02-11T04:08:47.292Z,100.00
2023-02-11T04:14:09.464Z,100.00
2023-02-11T04:19:31.287Z,100.00
2023-02-11T04:24:53.359Z,100.00
2023-02-11T04:30:15.221Z,100.00
2023-02-11T04:35:37.528Z,100.00
2023-02-11T04:41:01.090Z,100.00
2023-02-11T04:46:23.185Z,100.00
2023-02-11T04:51:49.542Z,100.00
2023-02-11T04:57:11.499Z,100.00
2023-02-11T05:02:33.771Z,100.00
2023-02-11T05:07:55.421Z,100.00
2023-02-11T05:13:17.389Z,100.00
2023-02-11T05:18:40.864Z,100.00
2023-02-11T05:24:02.794Z,100.00
2023-02-11T05:29:24.787Z,100.00
2023-02-11T05:34:46.609Z,100.00
2023-02-11T05:40:10.129Z,100.00
2023-02-11T05:45:32.689Z,100.00
2023-02-11T05:50:55.410Z,100.00
2023-02-11T05:56:17.941Z,100.00
2023-02-11T06:01:39.525Z,100.00
2023-02-11T06:07:01.567Z,100.00
2023-02-11T06:12:23.526Z,100.00
2023-02-11T06:17:45.653Z,100.00
2023-02-11T06:23:07.853Z,100.00
2023-02-11T06:28:31.924Z,100.00
2023-02-11T06:33:55.488Z,100.00
2023-02-11T06:39:17.765Z,100.00
2023-02-11T06:44:39.748Z,100.00
2023-02-11T06:50:01.668Z,100.00
2023-02-11T06:55:25.203Z,100.00
2023-02-11T07:00:49.871Z,100.00
2023-02-11T07:06:18.550Z,100.00
2023-02-11T07:11:41.265Z,100.00
2023-02-11T07:17:05.328Z,100.00
2023-02-11T07:22:31.088Z,100.00
2023-02-11T07:27:53.724Z,100.00
2023-02-11T07:33:15.750Z,100.00
2023-02-11T07:38:38.969Z,100.00
2023-02-11T07:44:03.778Z,100.00
2023-02-11T07:49:26.274Z,100.00
2023-02-11T07:54:49.348Z,100.00
2023-02-11T08:00:12.578Z,100.00
2023-02-11T08:05:34.706Z,100.00
2023-02-11T08:10:56.429Z,100.00
2023-02-11T08:16:30.440Z,100.00
2023-02-11T08:21:57.194Z,97.87
2023-02-11T08:27:19.207Z,100.00
2023-02-11T08:32:42.063Z,99.42
2023-02-11T08:38:04.392Z,95.37
2023-02-11T08:43:26.298Z,93.70
2023-02-11T08:48:48.553Z,89.88
2023-02-11T08:54:11.360Z,89.87
2023-02-11T08:59:34.087Z,91.38
2023-02-11T09:04:55.823Z,94.15
2023-02-11T09:10:18.121Z,94.28
2023-02-11T09:15:40.592Z,93.24
2023-02-11T09:21:04.302Z,100.00
2023-02-11T09:26:29.063Z,100.00
2023-02-11T09:31:51.396Z,100.00
2023-02-11T09:37:14.444Z,100.00
2023-02-11T09:43:03.070Z,96.02
2023-02-11T09:48:26.564Z,94.46
2023-02-11T09:53:51.963Z,96.01
2023-02-11T09:59:18.392Z,94.43
2023-02-11T10:05:14.107Z,92.85
2023-02-11T10:10:53.609Z,93.95
2023-02-11T10:16:57.146Z,95.86
2023-02-11T10:22:32.180Z,97.17
2023-02-11T10:27:59.039Z,99.78
2023-02-11T10:33:31.091Z,99.39
2023-02-11T10:38:53.744Z,100.00
2023-02-11T10:44:31.966Z,100.00
2023-02-11T10:49:54.288Z,100.00
2023-02-11T10:55:50.327Z,100.00
2023-02-11T11:01:24.440Z,100.00
2023-02-11T11:06:47.574Z,100.00
2023-02-11T11:12:46.235Z,100.00
2023-02-11T11:18:22.500Z,100.00
2023-02-11T11:23:54.614Z,100.00
2023-02-11T11:29:19.696Z,100.00
2023-02-11T11:34:44.650Z,100.00
2023-02-11T11:40:18.092Z,100.00
2023-02-11T11:45:40.860Z,100.00
2023-02-11T11:51:06.753Z,100.00
2023-02-11T11:56:35.399Z,100.00
2023-02-11T12:02:23.768Z,100.00
2023-02-11T12:07:51.982Z,100.00
2023-02-11T12:13:19.708Z,100.00
2023-02-11T12:19:03.521Z,100.00
2023-02-11T12:24:56.326Z,100.00
2023-02-11T12:30:45.088Z,100.00
2023-02-11T12:36:39.648Z,100.00
2023-02-11T12:42:38.132Z,100.00
2023-02-11T12:48:13.516Z,100.00
2023-02-11T12:53:56.063Z,100.00
2023-02-11T12:59:44.740Z,100.00
2023-02-11T13:05:34.422Z,100.00
2023-02-11T13:11:00.007Z,100.00
2023-02-11T13:16:45.239Z,100.00
2023-02-11T13:22:20.244Z,100.00
2023-02-11T13:28:19.249Z,100.00
2023-02-11T13:33:46.251Z,100.00
2023-02-11T13:39:23.768Z,100.00
2023-02-11T13:44:45.603Z,100.00
2023-02-11T13:50:11.089Z,100.00
2023-02-11T13:55:34.016Z,100.00
2023-02-11T14:00:56.372Z,100.00
2023-02-11T14:06:44.468Z,100.00
2023-02-11T14:12:31.060Z,100.00
2023-02-11T14:17:53.146Z,100.00
2023-02-11T14:23:25.247Z,100.00
2023-02-11T14:29:24.839Z,100.00
2023-02-11T14:35:03.006Z,100.00
2023-02-11T14:40:46.633Z,100.00
2023-02-11T14:46:10.924Z,100.00
2023-02-11T14:51:37.352Z,100.00
2023-02-11T14:57:20.815Z,100.00
2023-02-11T15:02:45.845Z,100.00
2023-02-11T15:08:15.954Z,100.00
2023-02-11T15:13:42.628Z,100.00
2023-02-11T15:19:09.477Z,100.00
2023-02-11T15:24:33.913Z,100.00
2023-02-11T15:29:56.118Z,100.00
2023-02-11T15:35:19.438Z,100.00
2023-02-11T15:40:41.540Z,100.00
2023-02-11T15:46:09.665Z,100.00
2023-02-11T15:51:37.546Z,100.00
2023-02-11T15:57:08.037Z,100.00
2023-02-11T16:02:33.805Z,100.00
2023-02-11T16:07:57.425Z,100.00
2023-02-11T16:13:21.044Z,100.00
2023-02-11T16:19:03.431Z,100.00
2023-02-11T16:24:30.948Z,100.00
2023-02-11T16:29:53.787Z,100.00
2023-02-11T16:35:16.275Z,100.00
2023-02-11T16:40:38.183Z,100.00
2023-02-11T16:46:00.192Z,100.00
2023-02-11T16:51:22.889Z,100.00
2023-02-11T16:56:45.849Z,100.00
2023-02-11T17:02:23.873Z,100.00
2023-02-11T17:07:46.432Z,100.00
2023-02-11T17:13:08.601Z,100.00
2023-02-11T17:18:32.824Z,100.00
2023-02-11T17:23:57.722Z,100.00
2023-02-11T17:29:22.903Z,100.00
2023-02-11T17:34:44.983Z,100.00
2023-02-11T17:40:08.524Z,100.00
2023-02-11T17:45:30.546Z,100.00
2023-02-11T17:50:52.864Z,100.00
2023-02-11T17:56:15.449Z,100.00
2023-02-11T18:01:39.375Z,100.00
2023-02-11T18:07:01.811Z,100.00
2023-02-11T18:12:27.080Z,100.00
2023-02-11T18:17:49.387Z,100.00
2023-02-11T18:23:11.783Z,100.00
2023-02-11T18:28:34.526Z,100.00
2023-02-11T18:33:56.511Z,100.00
2023-02-11T18:39:19.988Z,100.00
2023-02-11T18:44:41.870Z,100.00
2023-02-11T18:50:04.367Z,100.00
2023-02-11T18:55:26.487Z,100.00
2023-02-11T19:00:49.391Z,100.00
2023-02-11T19:06:25.869Z,100.00
2023-02-11T19:11:48.415Z,100.00
2023-02-11T19:17:13.024Z,100.00
2023-02-11T19:22:34.946Z,100.00
2023-02-11T19:27:57.020Z,100.00
2023-02-11T19:33:19.178Z,100.00
2023-02-11T19:38:41.468Z,100.00
2023-02-11T19:44:05.731Z,100.00
2023-02-11T19:49:28.486Z,100.00
2023-02-11T19:54:50.546Z,100.00
2023-02-11T20:00:13.251Z,100.00
2023-02-11T20:05:39.781Z,100.00
2023-02-11T20:11:10.826Z,100.00
2023-02-11T20:16:47.418Z,100.00
2023-02-11T20:22:11.026Z,100.00
2023-02-11T20:27:33.867Z,100.00
2023-02-11T20:32:56.232Z,100.00
2023-02-11T20:38:18.542Z,100.00
2023-02-11T20:43:42.151Z,100.00
2023-02-11T20:49:05.743Z,100.00
2023-02-11T20:54:27.683Z,100.00
2023-02-11T20:59:49.582Z,100.00
2023-02-11T21:05:12.681Z,100.00
2023-02-11T21:10:34.662Z,100.00
2023-02-11T21:15:57.967Z,100.00
2023-02-11T21:21:21.071Z,100.00
2023-02-11T21:26:43.537Z,100.00
2023-02-11T21:32:05.828Z,100.00
2023-02-11T21:37:27.952Z,100.00
2023-02-11T21:42:50.311Z,100.00
2023-02-11T21:48:13.853Z,100.00
2023-02-11T21:53:39.845Z,100.00
2023-02-11T21:59:02.426Z,100.00
2023-02-11T22:04:24.559Z,100.00
2023-02-11T22:09:46.294Z,100.00
2023-02-11T22:15:09.185Z,100.00
2023-02-11T22:20:31.142Z,100.00
2023-02-11T22:25:53.334Z,100.00
2023-02-11T22:31:19.074Z,100.00
2023-02-11T22:36:42.306Z,100.00
2023-02-11T22:42:04.285Z,100.00
2023-02-11T22:47:26.588Z,100.00
2023-02-11T22:52:48.646Z,100.00
2023-02-11T22:58:11.181Z,100.00
2023-02-11T23:03:35.052Z,100.00
2023-02-11T23:08:57.375Z,100.00
2023-02-11T23:14:19.468Z,100.00
2023-02-11T23:19:41.549Z,100.00
2023-02-11T23:25:03.903Z,100.00
2023-02-11T23:30:26.185Z,100.00
2023-02-11T23:35:48.422Z,100.00
2023-02-11T23:41:11.029Z,100.00
2023-02-11T23:46:33.160Z,100.00
2023-02-11T23:51:57.928Z,100.00
2023-02-11T23:57:19.987Z,100.00
